Terminal Aerodrome Forecast
Issued by NWS Shreveport, LA

Home | Current Version | Previous Version | Text Only | Print | Product List | Glossary On
Versions: 1 2 3 4 5 6 7 8 9 10 11 12
000
FTUS44 KSHV 040538
TAFLFK
TAF
KLFK 040538Z 0406/0506 VRB03KT P6SM SKC
     FM041300 VRB04KT P6SM SCT012
     FM041500 23004KT P6SM SCT020
     FM041700 17005KT P6SM SCT045 SCT250
     FM050100 16005KT P6SM BKN250=

USA.gov is the U.S. government's official web portal to all federal, state and local government web resources and services.